Terminal Aerodrome Forecast
Issued by NWS Cleveland, OH

Home | Current Version | Previous Version | Graphics & Text | Print | Product List | Glossary On
Versions: 1 2 3 4 5 6 7 8 9 10 11 12 13 14
000
FTUS41 KCLE 171133
TAFERI
TAF
KERI 171133Z 1712/1812 13006KT P6SM FEW200
     FM171500 16009KT P6SM BKN080
     FM171800 19012G20KT P6SM SCT030 BKN045
      TEMPO 1718/1722 3SM TSRA OVC030CB
     FM172200 19010KT P6SM VCSH BKN050
      TEMPO 1722/1802 3SM TSRA OVC030CB=

USA.gov is the U.S. government's official web portal to all federal, state and local government web resources and services.